Time;durP1;ratioP1;P1;durP2;ratioP2;P2;SDS_P1;SDS_P2;PMS_P1;PMS_P2;Temp;Humidity;BMP_temperature;BMP_pressure;BME280_temperature;BME280_humidity;BME280_pressure;Samples;Min_cycle;Max_cycle;Signal;HPM_P1;HPM_P2
2021/09/05 00:00:07;;;;;;;42.50;25.20;;;;;;;12.41;66.93;99438.25;112007;1196;61296;-86
2021/09/05 00:07:34;;;;;;;38.10;21.20;;;;;;;12.40;67.09;99432.41;111646;1199;76882;-84
2021/09/05 00:15:04;;;;;;;;;;;;;;;;;;;;;
2021/09/05 00:19:08;;;;;;;31.80;21.40;;;;;;;12.38;67.52;99440.96;113034;1186;61053;-85
2021/09/05 00:22:06;;;;;;;;;;;;;;;;;;;;;
2021/09/05 00:29:29;;;;;;;;;;;;;;;;;;;;;
2021/09/05 00:33:35;;;;;;;38.50;22.50;;;;;;;12.22;67.66;99457.35;112354;1193;71602;-88
2021/09/05 00:37:22;;;;;;;42.70;24.00;;;;;;;12.25;67.53;99468.36;111735;1196;61149;-85
2021/09/05 00:41:10;;;;;;;45.90;25.10;;;;;;;12.09;67.55;99473.25;111401;1203;62553;-85
2021/09/05 00:48:37;;;;;;;;;;;;;;;;;;;;;
2021/09/05 00:56:37;;;;;;;37.50;21.90;;;;;;;12.04;67.80;99472.91;112420;1193;61171;-85
2021/09/05 01:00:03;;;;;;;34.20;22.60;;;;;;;12.01;67.92;99471.33;111540;1200;72761;-84
2021/09/05 01:03:50;;;;;;;46.00;26.70;;;;;;;12.01;67.94;99474.20;111505;1200;69843;-85
2021/09/05 01:07:37;;;;;;;52.80;29.90;;;;;;;11.96;67.71;99471.88;111053;1206;73977;-85
2021/09/05 01:14:42;;;;;;;42.00;23.20;;;;;;;11.96;68.05;99473.83;110608;1212;62621;-85
2021/09/05 01:22:25;;;;;;;34.00;21.00;;;;;;;11.89;67.96;99484.33;112458;1193;61107;-87
2021/09/05 01:26:12;;;;;;;36.60;21.50;;;;;;;11.87;68.14;99488.02;112599;1191;61055;-84
2021/09/05 01:29:51;;;;;;;;;;;;;;;;;;;;;
2021/09/05 01:33:38;;;;;;;27.90;17.70;;;;;;;11.72;68.19;99495.84;111658;1200;67762;-89
2021/09/05 01:37:14;;;;;;;36.90;17.60;;;;;;;11.69;68.22;99498.92;111327;1203;71329;-85
2021/09/05 01:40:55;;;;;;;28.00;18.10;;;;;;;11.68;68.23;99498.64;110884;1207;61233;-84
2021/09/05 01:44:47;;;;;;;32.60;19.30;;;;;;;11.63;68.32;99503.23;110623;1210;61491;-86
2021/09/05 01:48:32;;;;;;;32.70;17.90;;;;;;;11.58;68.35;99506.59;110432;1213;76848;-87
2021/09/05 01:52:24;;;;;;;25.80;16.90;;;;;;;11.54;68.41;99508.48;110353;1213;69430;-84
2021/09/05 01:56:13;;;;;;;34.20;19.00;;;;;;;11.55;68.49;99510.33;110313;1214;74872;-84
2021/09/05 01:59:40;;;;;;;26.20;15.70;;;;;;;11.53;68.41;99516.45;110738;1208;62003;-91
2021/09/05 02:03:05;;;;;;;;;;;;;;;11.51;68.45;99516.38;110959;1208;62089;-86
2021/09/05 02:07:10;;;;;;;22.10;13.30;;;;;;;11.46;68.65;99522.98;110833;1206;76435;-82
2021/09/05 02:11:10;;;;;;;;;;;;;;;;;;;;;
2021/09/05 02:15:09;;;;;;;21.00;13.00;;;;;;;11.45;68.68;99525.34;110484;1214;73915;-84
2021/09/05 02:19:02;;;;;;;20.50;12.10;;;;;;;11.45;68.75;99528.90;110879;1208;62359;-85
2021/09/05 02:22:45;;;;;;;;;;;;;;;;;;;;;
2021/09/05 02:26:26;;;;;;;17.70;10.80;;;;;;;11.35;68.71;99535.48;110825;1208;76480;-87
2021/09/05 02:34:21;;;;;;;19.30;11.10;;;;;;;11.29;68.74;99546.04;110782;1207;74974;-84
2021/09/05 02:38:13;;;;;;;24.80;12.00;;;;;;;11.21;68.77;99547.65;110744;1209;62049;-84
2021/09/05 02:42:02;;;;;;;15.20;10.30;;;;;;;11.15;68.77;99546.47;110678;1211;61972;-84
2021/09/05 02:46:06;;;;;;;14.70;9.90;;;;;;;11.09;68.89;99544.36;111962;1194;600910;-88
2021/09/05 02:50:00;;;;;;;18.60;9.80;;;;;;;10.99;68.77;99543.91;112949;1187;61116;-84
2021/09/05 02:53:57;;;;;;;;;;;;;;;;;;;;;
2021/09/05 02:57:33;;;;;;;;;;;;;;;;;;;;;
2021/09/05 03:01:20;;;;;;;15.00;9.20;;;;;;;10.92;69.04;99548.50;112806;1189;66475;-84
2021/09/05 03:05:07;;;;;;;15.40;8.40;;;;;;;10.94;69.08;99556.73;112298;1193;72848;-85
2021/09/05 03:08:53;;;;;;;12.10;8.70;;;;;;;10.98;69.10;99557.73;112330;1193;61159;-85
2021/09/05 03:13:11;;;;;;;13.70;8.80;;;;;;;11.01;69.30;99556.41;112015;1193;62293;-85
2021/09/05 03:16:14;;;;;;;;;;;;;;;11.07;69.15;99559.60;111671;1199;75689;-88
2021/09/05 03:20:14;;;;;;;19.30;9.50;;;;;;;11.05;69.08;99556.20;111728;1196;66977;-85
2021/09/05 03:27:50;;;;;;;17.50;10.20;;;;;;;10.83;68.85;99564.93;111217;1206;61947;-82
2021/09/05 03:31:37;;;;;;;13.60;8.80;;;;;;;10.73;69.15;99563.64;111355;1200;61974;-82
2021/09/05 03:35:14;;;;;;;14.00;9.10;;;;;;;10.73;69.31;99566.31;111493;1200;78274;-82
2021/09/05 03:39:12;;;;;;;14.90;8.80;;;;;;;10.71;69.22;99564.64;111267;1201;69091;-88
2021/09/05 03:42:57;;;;;;;17.60;9.10;;;;;;;10.71;69.38;99568.23;111597;1200;75485;-84
2021/09/05 03:46:50;;;;;;;14.80;9.50;;;;;;;10.71;69.24;99573.92;111368;1203;61938;-85
2021/09/05 03:58:54;;;;;;;17.20;9.10;;;;;;;10.67;69.43;99579.48;112844;1189;61422;-85
2021/09/05 04:06:28;;;;;;;15.90;9.60;;;;;;;10.54;69.55;99586.21;111693;1200;76662;-86
2021/09/05 04:13:59;;;;;;;14.10;8.90;;;;;;;10.37;69.42;99592.86;111253;1202;74706;-84
2021/09/05 04:17:46;;;;;;;14.50;8.70;;;;;;;10.32;69.62;99600.29;110918;1206;61341;-85
2021/09/05 04:32:57;;;;;;;;;;;;;;;;;;;;;
2021/09/05 04:37:00;;;;;;;17.20;8.40;;;;;;;10.73;69.90;99607.27;111693;1200;74529;-84
2021/09/05 04:40:46;;;;;;;14.60;8.50;;;;;;;10.83;69.81;99611.77;111433;1203;68003;-83
2021/09/05 04:44:33;;;;;;;13.00;8.70;;;;;;;10.94;69.96;99612.67;110846;1206;73677;-84
2021/09/05 04:52:35;;;;;;;13.80;8.30;;;;;;;11.07;69.91;99619.70;111296;1200;614511;-81
2021/09/05 05:00:10;;;;;;;12.80;7.90;;;;;;;11.05;69.76;99627.66;112392;1193;61111;-83
2021/09/05 05:03:57;;;;;;;11.70;7.20;;;;;;;11.10;69.76;99633.58;111797;1196;74902;-87
2021/09/05 05:18:32;;;;;;;12.10;7.70;;;;;;;11.36;69.88;99658.77;112162;1198;600662;-85
2021/09/05 05:21:52;;;;;;;13.40;8.50;;;;;;;11.47;69.91;99659.49;112934;1185;61145;-86
2021/09/05 05:25:41;;;;;;;12.30;7.60;;;;;;;11.57;69.61;99663.62;113250;1185;61189;-87
2021/09/05 05:29:02;;;;;;;;;;;;;;;;;;;;;
2021/09/05 05:32:25;;;;;;;;;;;;;;;;;;;;;
2021/09/05 05:36:38;;;;;;;13.40;8.40;;;;;;;11.72;69.87;99673.70;112635;1190;71075;-82
2021/09/05 05:48:02;;;;;;;16.30;8.50;;;;;;;12.02;69.82;99683.06;111873;1200;76083;-84
2021/09/05 05:51:02;;;;;;;13.20;8.60;;;;;;;12.16;70.03;99682.27;111358;1205;70324;-82
2021/09/05 05:54:35;;;;;;;;;;;;;;;;;;;;;
2021/09/05 05:58:07;;;;;;;;;;;;;;;;;;;;;
2021/09/05 06:01:52;;;;;;;20.50;11.00;;;;;;;12.72;69.89;99685.75;110816;1208;62099;-84
2021/09/05 06:04:54;;;;;;;;;;;;;;;;;;;;;
2021/09/05 06:08:38;;;;;;;15.80;10.90;;;;;;;12.93;69.92;99694.59;111606;1202;70274;-84
2021/09/05 06:12:04;;;;;;;15.60;10.00;;;;;;;13.10;70.00;99702.66;111329;1203;72628;-83
2021/09/05 06:15:08;;;;;;;;;;;;;;;;;;;;;
2021/09/05 06:19:21;;;;;;;16.60;10.40;;;;;;;13.38;69.94;99702.05;111626;1200;62128;-83
2021/09/05 06:25:58;;;;;;;14.40;9.40;;;;;;;13.68;69.95;99703.73;110808;1209;70043;-83
2021/09/05 06:29:37;;;;;;;;;;;;;;;;;;;;;
2021/09/05 06:33:26;;;;;;;15.00;10.30;;;;;;;13.99;69.82;99703.59;111433;1203;62109;-83
2021/09/05 06:36:23;;;;;;;;;;;;;;;;;;;;;
2021/09/05 06:40:18;;;;;;;17.90;10.70;;;;;;;14.35;69.91;99704.95;111561;1203;77799;-83
2021/09/05 06:48:08;;;;;;;19.30;9.70;;;;;;;14.59;69.51;99707.05;111867;1198;600045;-86
2021/09/05 06:51:31;;;;;;;17.10;9.10;;;;;;;14.68;69.52;99709.19;112897;1186;61135;-85
2021/09/05 06:55:05;;;;;;;;;;;;;;;;;;;;;
2021/09/05 06:58:17;;;;;;;15.70;9.50;;;;;;;14.99;69.16;99715.65;113344;1185;76472;-86
2021/09/05 07:02:21;;;;;;;16.70;10.10;;;;;;;15.13;69.26;99718.85;113004;1186;65800;-84
2021/09/05 07:09:22;;;;;;;;;;;;;;;;;;;;;
2021/09/05 07:12:53;;;;;;;;;;;;;;;;;;;;;
2021/09/05 07:16:14;;;;;;;;;;;;;;;;;;;;;
2021/09/05 07:19:41;;;;;;;14.10;8.40;;;;;;;16.28;69.16;99730.17;111511;1202;67104;-84
2021/09/05 07:26:02;;;;;;;16.20;9.20;;;;;;;16.74;68.98;99734.31;111324;1205;62290;-87
2021/09/05 07:29:50;;;;;;;15.30;8.50;;;;;;;16.93;68.81;99736.58;111451;1203;62253;-88
2021/09/05 07:33:00;;;;;;;16.10;9.90;;;;;;;17.15;68.72;99745.13;111281;1203;77789;-84
2021/09/05 07:36:16;;;;;;;12.40;8.30;;;;;;;17.32;68.39;99748.98;111666;1203;70563;-85
2021/09/05 07:39:57;;;;;;;;;;;;;;;;;;;;;
2021/09/05 07:43:21;;;;;;;14.40;8.60;;;;;;;17.78;68.56;99744.31;111101;1206;61929;-86
2021/09/05 07:46:53;;;;;;;11.50;7.20;;;;;;;17.95;68.29;99750.90;111056;1204;62589;-87
2021/09/05 07:50:28;;;;;;;;;;;;;;;;;;;;;
2021/09/05 07:57:21;;;;;;;;;;;;;;;;;;;;;
2021/09/05 08:00:42;;;;;;;;;;;;;;;;;;;;;
2021/09/05 08:03:42;;;;;;;12.60;7.80;;;;;;;18.45;67.60;99769.33;111665;1202;63036;-85
2021/09/05 08:07:45;;;;;;;11.20;7.70;;;;;;;18.57;67.65;99772.52;111486;1203;76748;-87
2021/09/05 08:10:47;;;;;;;10.20;7.30;;;;;;;18.65;67.55;99774.30;111358;1202;68846;-86
2021/09/05 08:14:06;;;;;;;13.40;7.50;;;;;;;18.77;67.51;99774.79;111271;1202;74178;-85
2021/09/05 08:16:38;;;;;;;12.50;7.20;;;;;;;18.90;67.51;99774.25;111537;1200;61840;-86
2021/09/05 08:20:01;;;;;;;13.90;7.80;;;;;;;18.96;67.34;99780.95;112418;1193;62084;-86
2021/09/05 08:24:01;;;;;;;11.60;7.60;;;;;;;19.07;67.19;99785.99;112070;1193;75786;-87
2021/09/05 08:26:25;;;;;;;;;;;;;;;;;;;;;
2021/09/05 08:29:37;;;;;;;11.90;8.00;;;;;;;19.32;67.35;99789.55;113478;1182;71140;-91
2021/09/05 08:33:24;;;;;;;;;;;;;;;;;;;;;
2021/09/05 08:37:27;;;;;;;12.30;7.90;;;;;;;19.64;67.03;99791.80;113529;1186;61942;-93
2021/09/05 08:40:38;;;;;;;11.10;7.50;;;;;;;19.83;66.89;99793.98;112863;1188;75661;-89
2021/09/05 08:44:04;;;;;;;;;;;;;;;;;;;;;
2021/09/05 08:47:22;;;;;;;11.20;6.80;;;;;;;20.13;66.84;99793.81;112907;1187;72576;-89
2021/09/05 08:51:06;;;;;;;9.90;6.90;;;;;;;20.31;66.62;99794.41;113599;1187;63201;-92
2021/09/05 08:53:40;;;;;;;11.80;7.00;;;;;;;20.48;66.51;99795.88;113941;1190;62008;-89
2021/09/05 08:56:26;;;;;;;11.90;6.60;;;;;;;20.59;66.50;99795.60;112936;1190;74104;-90
2021/09/05 08:59:40;;;;;;;10.40;6.20;;;;;;;20.69;66.22;99796.29;114114;1190;65590;-92
2021/09/05 09:03:19;;;;;;;;;;;;;;;;;;;;;
2021/09/05 09:10:57;;;;;;;;;;;;;;;;;;;;;
2021/09/05 09:21:48;;;;;;;9.50;5.80;;;;;;;21.27;65.48;99805.44;112948;1192;72810;-90
2021/09/05 09:25:44;;;;;;;10.40;6.40;;;;;;;21.44;65.21;99808.83;113839;1190;61995;-89
2021/09/05 09:56:21;;;;;;;;;;;;;;;;;;;;;
2021/09/05 10:00:08;;;;;;;7.00;4.70;;;;;;;22.88;63.33;99790.44;112082;1203;73882;-91
2021/09/05 10:08:10;;;;;;;;;;;;;;;;;;;;;
2021/09/05 10:12:09;;;;;;;;;;;;;;;;;;;;;
2021/09/05 10:16:02;;;;;;;4.60;3.00;;;;;;;23.19;62.38;99796.05;115218;1198;61556;-93
2021/09/05 10:19:23;;;;;;;;;;;;;;;;;;;;;
2021/09/05 10:22:45;;;;;;;4.30;3.00;;;;;;;23.22;62.02;99795.11;114579;1206;69858;-91
2021/09/05 10:26:57;;;;;;;4.50;3.40;;;;;;;23.31;61.82;99791.42;114502;1208;73481;-93
2021/09/05 10:34:58;;;;;;;4.70;3.30;;;;;;;23.47;61.57;99790.85;111709;1198;600901;-91
2021/09/05 10:42:13;;;;;;;;;;;;;;;23.55;60.99;99784.64;113389;1188;61054;-91
2021/09/05 11:04:36;;;;;;;;;;;;;;;;;;;;;
2021/09/05 11:08:31;;;;;;;;;;;;;;;;;;;;;
2021/09/05 11:16:47;;;;;;;5.20;3.40;;;;;;;23.86;59.62;99791.77;116019;1192;76940;-90
2021/09/05 11:20:34;;;;;;;3.50;2.60;;;;;;;23.94;59.03;99793.08;115375;1196;70232;-93
2021/09/05 11:23:55;;;;;;;;;;;;;;;;;;;;;
2021/09/05 11:27:33;;;;;;;3.70;3.20;;;;;;;23.83;58.69;99789.95;114760;1204;59132;-93
2021/09/05 11:37:48;;;;;;;;;;;;;;;;;;;;;
2021/09/05 11:49:57;;;;;;;5.00;3.30;;;;;;;23.75;57.73;99795.58;115674;1193;59683;-93
2021/09/05 11:53:27;;;;;;;;;;;;;;;;;;;;;
2021/09/05 11:57:07;;;;;;;4.30;3.10;;;;;;;23.62;57.39;99795.70;116867;1185;65541;-93
2021/09/05 12:01:32;;;;;;;7.10;3.10;;;;;;;23.64;57.36;99796.34;116892;1185;74580;-92
2021/09/05 12:05:14;;;;;;;5.50;3.10;;;;;;;23.56;56.60;99796.59;117011;1185;59666;-91
2021/09/05 12:08:28;;;;;;;4.90;3.20;;;;;;;23.41;57.07;99792.62;116923;1184;59607;-91
2021/09/05 12:16:44;;;;;;;4.80;4.30;;;;;;;23.49;56.74;99796.10;116512;1187;66245;-92
2021/09/05 12:24:18;;;;;;;;;;;;;;;;;;;;;
2021/09/05 12:28:25;;;;;;;4.50;3.10;;;;;;;23.15;55.95;99792.13;115752;1195;63007;-93
2021/09/05 12:31:34;;;;;;;;;;;;;;;;;;;;;
2021/09/05 12:39:05;;;;;;;4.60;3.40;;;;;;;22.94;55.83;99789.61;116954;1185;72621;-94
2021/09/05 12:43:36;;;;;;;5.50;3.90;;;;;;;22.76;55.60;99785.79;117057;1185;59748;-92
2021/09/05 12:46:54;;;;;;;;;;;;;;;;;;;;;
2021/09/05 12:50:29;;;;;;;4.20;3.20;;;;;;;22.60;55.15;99792.98;116671;1188;75436;-93
2021/09/05 12:53:44;;;;;;;;;;;;;;;;;;;;;
2021/09/05 12:57:35;;;;;;;;;;;;;;;;;;;;;
2021/09/05 13:12:16;;;;;;;;;;;;;;;;;;;;;
2021/09/05 13:19:45;;;;;;;5.40;3.10;;;;;;;22.21;54.80;99788.55;117018;1183;59738;-92
2021/09/05 13:27:52;;;;;;;4.30;2.90;;;;;;;22.26;54.34;99779.90;116283;1190;75107;-91
2021/09/05 13:34:40;;;;;;;6.40;3.00;;;;;;;22.18;53.87;99777.17;117067;1184;72671;-92
2021/09/05 13:38:29;;;;;;;3.10;2.80;;;;;;;22.05;53.74;99775.02;116660;1189;59822;-91
2021/09/05 13:41:35;;;;;;;;;;;;;;;;;;;;;
2021/09/05 13:45:42;;;;;;;4.20;2.80;;;;;;;22.03;53.89;99774.33;116012;1192;75634;-90
2021/09/05 13:49:14;;;;;;;;;;;;;;;;;;;;;
2021/09/05 13:56:36;;;;;;;4.80;3.10;;;;;;;21.99;53.57;99765.89;117179;1182;59658;-89
2021/09/05 14:14:19;;;;;;;;;;;;;;;;;;;;;
2021/09/05 14:18:07;;;;;;;;;;;;;;;;;;;;;
2021/09/05 14:21:57;;;;;;;4.40;2.90;;;;;;;21.62;53.01;99768.70;114913;1202;77604;-92
2021/09/05 14:25:04;;;;;;;2.40;2.20;;;;;;;21.56;52.95;99767.66;114519;1207;70831;-93
2021/09/05 14:32:05;;;;;;;3.50;2.70;;;;;;;21.33;52.65;99764.73;117058;1183;59877;-91
2021/09/05 14:58:47;;;;;;;4.80;3.00;;;;;;;20.62;52.16;99764.45;116668;1187;75415;-91
2021/09/05 15:13:30;;;;;;;3.20;2.10;;;;;;;20.28;52.07;99765.77;116133;1192;59811;-92
2021/09/05 15:16:54;;;;;;;4.20;2.40;;;;;;;20.20;51.96;99763.27;115276;1196;77710;-90
2021/09/05 15:20:16;;;;;;;3.80;2.50;;;;;;;20.19;51.98;99763.16;114771;1203;68159;-91
2021/09/05 15:24:09;;;;;;;4.60;2.80;;;;;;;20.19;52.07;99761.70;114732;1203;75218;-91
2021/09/05 15:55:05;;;;;;;;;;;;;;;;;;;;;
2021/09/05 15:58:47;;;;;;;4.60;2.60;;;;;;;20.53;51.84;99760.17;113578;1188;61085;-91
2021/09/05 16:20:55;;;;;;;4.40;2.80;;;;;;;20.63;51.24;99756.96;112147;1193;61897;-91
2021/09/05 16:24:39;;;;;;;;;;;;;;;;;;;;;
2021/09/05 16:28:53;;;;;;;5.00;2.80;;;;;;;19.87;51.57;99757.61;111603;1202;70020;-91
2021/09/05 16:43:20;;;;;;;3.60;2.70;;;;;;;18.73;51.69;99761.47;111344;1205;77584;-90
2021/09/05 16:46:49;;;;;;;3.60;2.30;;;;;;;18.55;51.78;99761.66;111193;1205;70580;-92
2021/09/05 16:50:19;;;;;;;5.30;3.00;;;;;;;18.35;51.87;99766.66;110725;1211;74299;-89
2021/09/05 16:53:56;;;;;;;4.30;2.50;;;;;;;18.17;51.79;99768.34;110590;1211;61990;-89
2021/09/05 17:01:24;;;;;;;;;;;;;;;;;;;;;
2021/09/05 17:05:30;;;;;;;4.70;2.70;;;;;;;17.66;51.94;99771.38;113494;1184;61133;-92
2021/09/05 17:09:11;;;;;;;6.20;3.00;;;;;;;17.50;51.89;99770.97;113961;1184;64001;-91
2021/09/05 17:12:18;;;;;;;;;;;;;;;;;;;;;
2021/09/05 17:16:32;;;;;;;4.20;2.30;;;;;;;17.21;52.02;99773.40;113686;1184;68559;-90
2021/09/05 17:19:33;;;;;;;;;;;;;;;;;;;;;
2021/09/05 17:22:42;;;;;;;4.20;3.00;;;;;;;16.93;52.01;99774.23;112739;1190;61127;-91
2021/09/05 17:26:45;;;;;;;4.00;2.80;;;;;;;16.79;51.98;99774.75;112995;1190;61264;-91
2021/09/05 17:30:04;;;;;;;4.40;2.80;;;;;;;16.62;51.93;99775.04;112965;1190;74836;-91
2021/09/05 17:33:13;;;;;;;;;;;;;;;;;;;;;
2021/09/05 17:36:38;;;;;;;5.50;3.00;;;;;;;16.32;51.99;99783.72;112891;1190;71153;-90
2021/09/05 17:40:18;;;;;;;;;;;;;;;;;;;;;
2021/09/05 17:43:35;;;;;;;;;;;;;;;;;;;;;
2021/09/05 17:47:35;;;;;;;;;;;;;;;;;;;;;
2021/09/05 17:51:03;;;;;;;;;;;;;;;;;;;;;
2021/09/05 17:54:07;;;;;;;4.30;3.00;;;;;;;15.41;52.13;99806.43;113127;1187;71525;-90
2021/09/05 17:57:32;;;;;;;;;;;;;;;;;;;;;
2021/09/05 18:01:14;;;;;;;5.90;2.90;;;;;;;15.20;52.43;99817.31;113586;1181;61916;-90
2021/09/05 18:04:16;;;;;;;6.70;3.50;;;;;;;15.15;52.69;99821.45;113638;1180;78813;-90
2021/09/05 18:08:15;;;;;;;;;;;;;;;;;;;;;
2021/09/05 18:11:39;;;;;;;6.70;2.90;;;;;;;15.04;52.88;99822.90;113531;1180;70935;-90
2021/09/05 18:15:36;;;;;;;;;;;;;;;;;;;;;
2021/09/05 18:19:03;;;;;;;4.60;2.60;;;;;;;14.86;53.05;99836.48;113138;1185;62095;-90
2021/09/05 18:23:18;;;;;;;3.30;2.30;;;;;;;14.80;53.29;99837.48;113199;1186;75454;-91
2021/09/05 18:27:04;;;;;;;5.10;2.90;;;;;;;14.75;53.30;99843.05;113180;1185;67421;-91
2021/09/05 18:30:05;;;;;;;;;;;;;;;;;;;;;
2021/09/05 18:33:35;;;;;;;;;;;;;;;;;;;;;
2021/09/05 18:37:39;;;;;;;;;;;;;;;;;;;;;
2021/09/05 18:41:39;;;;;;;7.00;2.80;;;;;;;14.59;53.67;99855.74;112075;1194;76932;-93
2021/09/05 18:53:44;;;;;;;3.80;2.30;;;;;;;14.46;53.93;99851.55;112141;1193;61210;-90
2021/09/05 19:01:06;;;;;;;4.70;2.90;;;;;;;14.49;54.19;99854.33;111862;1196;73332;-93
2021/09/05 19:04:42;;;;;;;6.00;3.70;;;;;;;14.51;54.24;99849.39;111374;1202;70135;-90
2021/09/05 19:08:28;;;;;;;8.00;3.70;;;;;;;14.52;54.27;99848.45;111176;1205;74959;-90
2021/09/05 19:11:49;;;;;;;6.60;3.80;;;;;;;14.50;54.40;99851.24;110872;1208;61156;-89
2021/09/05 19:19:34;;;;;;;5.50;3.20;;;;;;;14.41;54.42;99856.21;111738;1197;600592;-89
2021/09/05 19:23:21;;;;;;;5.00;3.40;;;;;;;14.29;54.52;99858.16;112408;1194;61746;-91
2021/09/05 19:26:36;;;;;;;;;;;;;;;;;;;;;
2021/09/05 19:34:18;;;;;;;;;;;;;;;;;;;;;
2021/09/05 19:38:19;;;;;;;9.40;3.60;;;;;;;13.92;54.83;99872.89;111433;1200;75197;-91
2021/09/05 19:41:18;;;;;;;;;;;;;;;;;;;;;
2021/09/05 19:45:18;;;;;;;;;;;;;;;;;;;;;
2021/09/05 19:49:03;;;;;;;5.10;3.00;;;;;;;13.49;54.88;99869.20;110950;1209;77101;-90
2021/09/05 19:52:17;;;;;;;;;;;;;;;;;;;;;
2021/09/05 19:59:37;;;;;;;;;;;;;;;;;;;;;
2021/09/05 20:03:23;;;;;;;5.00;3.70;;;;;;;13.03;55.37;99886.52;113213;1186;61178;-94
2021/09/05 20:07:10;;;;;;;5.30;3.60;;;;;;;13.05;55.62;99883.95;113043;1187;61104;-90
2021/09/05 20:10:58;;;;;;;5.70;3.30;;;;;;;13.05;55.85;99885.36;112629;1190;75151;-89
2021/09/05 20:18:19;;;;;;;;;;;;;;;;;;;;;
2021/09/05 20:22:10;;;;;;;9.10;4.10;;;;;;;12.99;55.89;99884.11;111595;1200;61745;-90
2021/09/05 20:41:16;;;;;;;8.80;4.00;;;;;;;13.09;56.25;99893.31;113226;1185;61094;-91
2021/09/05 20:45:04;;;;;;;7.00;4.00;;;;;;;13.06;56.44;99888.69;112794;1190;61761;-89
2021/09/05 20:48:33;;;;;;;7.30;4.00;;;;;;;13.05;56.52;99889.86;111951;1196;77631;-90
2021/09/05 20:55:47;;;;;;;;;;;;;;;;;;;;;
2021/09/05 20:59:30;;;;;;;;;;;;;;;;;;;;;
2021/09/05 21:03:07;;;;;;;;;;;;;;;;;;;;;
2021/09/05 21:10:44;;;;;;;;;;;;;;;;;;;;;
2021/09/05 21:14:02;;;;;;;;;;;;;;;;;;;;;
2021/09/05 21:17:43;;;;;;;15.00;4.30;;;;;;;12.47;57.08;99905.75;113306;1183;61017;-91
2021/09/05 21:21:21;;;;;;;7.70;3.70;;;;;;;12.37;57.03;99905.15;113240;1184;73310;-91
2021/09/05 21:25:09;;;;;;;5.30;3.30;;;;;;;12.30;57.27;99907.39;112876;1188;70922;-90
2021/09/05 21:28:14;;;;;;;;;;;;;;;;;;;;;
2021/09/05 21:31:37;;;;;;;;;;;;;;;;;;;;;
2021/09/05 21:35:03;;;;;;;;;;;;;;;;;;;;;
2021/09/05 21:38:34;;;;;;;7.90;4.40;;;;;;;12.03;57.41;99910.21;113522;1180;61225;-90
2021/09/05 21:45:39;;;;;;;;;;;;;;;;;;;;;
2021/09/05 21:49:28;;;;;;;6.90;3.40;;;;;;;12.02;57.86;99914.58;113269;1185;67730;-90
2021/09/05 21:52:39;;;;;;;;;;;;;;;;;;;;;
2021/09/05 21:56:19;;;;;;;;;;;;;;;;;;;;;
2021/09/05 22:03:25;;;;;;;;;;;;;;;;;;;;;
2021/09/05 22:07:03;;;;;;;;;;;;;;;;;;;;;
2021/09/05 22:10:28;;;;;;;;;;;;;;;;;;;;;
2021/09/05 22:13:10;;;;;;;7.30;4.50;;;;;;;12.24;58.10;99908.14;112356;1193;61881;-91
2021/09/05 22:16:51;;;;;;;;;;;;;;;;;;;;;
2021/09/05 22:24:52;;;;;;;9.10;4.50;;;;;;;12.03;58.47;99903.25;112020;1199;70157;-89
2021/09/05 22:28:39;;;;;;;7.70;4.10;;;;;;;12.03;58.64;99900.95;111743;1199;74613;-90
2021/09/05 22:32:22;;;;;;;9.30;4.10;;;;;;;12.04;58.63;99901.91;111522;1203;61946;-95
2021/09/05 22:35:53;;;;;;;9.90;4.70;;;;;;;12.08;58.71;99900.05;111696;1200;62317;-93
2021/09/05 22:43:14;;;;;;;7.60;4.90;;;;;;;12.04;58.80;99906.38;111704;1199;600256;-91
2021/09/05 22:47:21;;;;;;;12.20;5.40;;;;;;;11.95;58.92;99906.25;113084;1186;61046;-91
2021/09/05 22:54:29;;;;;;;;;;;;;;;11.84;59.10;99908.58;111823;1197;73555;-89
2021/09/05 22:58:16;;;;;;;9.10;4.60;;;;;;;11.76;59.20;99905.30;111860;1196;67837;-89
2021/09/05 23:01:56;;;;;;;15.20;5.20;;;;;;;11.69;59.18;99901.47;111454;1202;72779;-90
2021/09/05 23:09:15;;;;;;;;;;;;;;;;;;;;;
2021/09/05 23:13:44;;;;;;;8.10;4.70;;;;;;;11.58;59.45;99903.93;111420;1199;600251;-92
2021/09/05 23:21:20;;;;;;;9.30;5.50;;;;;;;11.59;59.86;99903.52;112311;1193;62529;-91
2021/09/05 23:24:41;;;;;;;;;;;;;;;;;;;;;
2021/09/05 23:28:53;;;;;;;8.80;5.60;;;;;;;11.43;59.59;99912.39;111343;1206;70140;-90
2021/09/05 23:32:25;;;;;;;7.70;4.90;;;;;;;11.36;59.70;99909.58;111359;1206;74218;-91
2021/09/05 23:39:34;;;;;;;11.40;5.40;;;;;;;11.25;59.85;99907.04;111935;1195;601498;-90
2021/09/05 23:43:22;;;;;;;;;;;;;;;;;;;;;
2021/09/05 23:50:41;;;;;;;;;;;;;;;11.17;60.32;99905.59;113589;1181;74826;-89
2021/09/05 23:53:50;;;;;;;17.00;5.00;;;;;;;11.21;60.34;99904.12;113400;1180;67942;-90
